Canaan, Connecticut
Current Conditions -  °F | °C
As of 3:54 PM on Friday 21 Nov 2014 (Local Time) from KPSF Reporting Station
Clear Clear  
Wind Chill: 12°   Ceiling: Unl
Heat Index: 24°   Visibility: 10mi
Dew Point:   Wind: 13mph
Humidity: 46%   Direction: 290°WNW
Pressure: 30.26"   Gusts: 25mph
Location:  42.03°N, 73.33°W
Report Text: KPSF 212054Z AUTO 29011G22KT 10SM CLR M04/M14 A3026 RMK AO2 SLP266 T10441144 53030
Loading
Personal Weather Stations






























Interactive Weather Map New forecast layout! Learn more

10-Day Weather Forecast

Advertisements
Track Severe Weather on mobile